createdAt,value
2023-01-07T00:01:53.446Z,6.25
2023-01-07T00:04:21.427Z,5.80
2023-01-07T00:06:49.445Z,6.03
2023-01-07T00:09:16.938Z,14.27
2023-01-07T00:11:45.055Z,6.90
2023-01-07T00:14:14.083Z,4.97
2023-01-07T00:16:41.937Z,6.10
2023-01-07T00:19:12.831Z,4.13
2023-01-07T00:21:40.119Z,5.78
2023-01-07T00:24:07.483Z,7.40
2023-01-07T00:26:35.993Z,6.78
2023-01-07T00:29:04.466Z,3.53
2023-01-07T00:31:34.609Z,4.47
2023-01-07T00:34:01.895Z,5.90
2023-01-07T00:36:31.013Z,5.03
2023-01-07T00:39:10.383Z,5.65
2023-01-07T00:41:37.768Z,5.40
2023-01-07T00:44:06.481Z,4.88
2023-01-07T00:46:34.033Z,7.60
2023-01-07T00:49:02.026Z,5.40
2023-01-07T00:51:29.404Z,5.88
2023-01-07T00:53:56.805Z,7.35
2023-01-07T00:56:24.147Z,8.23
2023-01-07T00:58:51.423Z,5.63
2023-01-07T01:01:19.211Z,7.28
2023-01-07T01:03:46.815Z,4.15
2023-01-07T01:06:16.310Z,6.20
2023-01-07T01:08:45.713Z,6.15
2023-01-07T01:11:14.710Z,6.13
2023-01-07T01:13:42.880Z,7.05
2023-01-07T01:16:12.644Z,4.82
2023-01-07T01:18:40.518Z,9.00
2023-01-07T01:21:12.121Z,4.85
2023-01-07T01:23:40.168Z,4.55
2023-01-07T01:26:10.835Z,4.25
2023-01-07T01:28:38.070Z,5.25
2023-01-07T01:31:08.254Z,5.82
2023-01-07T01:33:49.215Z,5.80
2023-01-07T01:36:17.631Z,4.15
2023-01-07T01:38:44.934Z,4.88
2023-01-07T01:41:16.297Z,4.55
2023-01-07T01:43:45.539Z,4.90
2023-01-07T01:46:46.028Z,3.45
2023-01-07T01:49:22.877Z,5.20
2023-01-07T01:51:58.051Z,5.05
2023-01-07T01:54:26.142Z,3.20
2023-01-07T01:59:25.966Z,4.60
2023-01-07T02:01:55.474Z,4.40
2023-01-07T02:04:24.891Z,4.43
2023-01-07T02:07:00.682Z,5.40
2023-01-07T02:09:30.094Z,6.38
2023-01-07T02:12:07.440Z,4.15
2023-01-07T02:15:01.614Z,6.32
2023-01-07T02:17:54.937Z,8.02
2023-01-07T02:20:41.951Z,5.45
2023-01-07T02:23:31.008Z,4.88
2023-01-07T02:26:32.378Z,4.90
2023-01-07T02:29:22.943Z,4.10
2023-01-07T02:32:07.321Z,5.60
2023-01-07T02:34:40.907Z,3.80
2023-01-07T02:37:35.035Z,5.15
2023-01-07T02:40:27.192Z,5.78
2023-01-07T02:43:06.893Z,4.65
2023-01-07T02:45:53.084Z,6.10
2023-01-07T02:48:21.919Z,3.53
2023-01-07T02:50:49.176Z,4.18
2023-01-07T02:53:18.117Z,2.70
2023-01-07T02:56:36.535Z,4.80
2023-01-07T02:59:23.201Z,3.50
2023-01-07T03:02:00.196Z,4.32
2023-01-07T03:04:45.712Z,3.83
2023-01-07T03:07:45.501Z,2.97
2023-01-07T03:10:26.821Z,3.38
2023-01-07T03:13:05.721Z,4.10
2023-01-07T03:15:37.863Z,5.18
2023-01-07T03:18:22.760Z,4.28
2023-01-07T03:20:53.778Z,3.65
2023-01-07T03:23:23.723Z,4.18
2023-01-07T03:25:52.334Z,6.25
2023-01-07T03:28:23.132Z,2.42
2023-01-07T03:30:51.637Z,7.03
2023-01-07T03:33:27.833Z,3.70
2023-01-07T03:35:57.220Z,4.90
2023-01-07T03:38:25.200Z,4.03
2023-01-07T03:40:53.025Z,3.60
2023-01-07T03:43:22.304Z,4.45
2023-01-07T03:45:50.957Z,3.28
2023-01-07T03:48:18.299Z,2.90
2023-01-07T03:50:45.810Z,5.40
2023-01-07T03:53:13.077Z,3.47
2023-01-07T03:55:44.774Z,4.28
2023-01-07T03:58:12.166Z,1.80
2023-01-07T04:00:39.438Z,2.60
2023-01-07T04:03:15.820Z,3.58
2023-01-07T04:05:46.192Z,3.53
2023-01-07T04:08:14.177Z,1.65
2023-01-07T04:10:42.652Z,2.55
2023-01-07T04:13:11.709Z,2.78
2023-01-07T04:15:41.184Z,2.90
2023-01-07T04:18:09.380Z,4.38
2023-01-07T04:20:36.788Z,1.85
2023-01-07T04:23:04.888Z,1.80
2023-01-07T04:25:32.628Z,2.72
2023-01-07T04:28:03.251Z,2.40
2023-01-07T04:30:30.545Z,3.33
2023-01-07T04:32:57.867Z,4.45
2023-01-07T04:35:25.328Z,3.53
2023-01-07T04:37:52.573Z,5.70
2023-01-07T04:40:19.843Z,2.28
2023-01-07T04:42:47.843Z,3.75
2023-01-07T04:45:15.747Z,5.82
2023-01-07T04:47:43.082Z,3.35
2023-01-07T04:50:10.681Z,2.65
2023-01-07T04:52:38.030Z,3.80
2023-01-07T04:55:06.461Z,4.35
2023-01-07T04:57:33.887Z,3.25
2023-01-07T05:00:01.214Z,3.80
2023-01-07T05:02:28.529Z,3.38
2023-01-07T05:04:55.991Z,4.63
2023-01-07T05:07:23.441Z,4.18
2023-01-07T05:09:51.822Z,4.53
2023-01-07T05:12:19.789Z,3.45
2023-01-07T05:14:47.893Z,5.20
2023-01-07T05:17:15.279Z,4.03
2023-01-07T05:19:43.525Z,6.43
2023-01-07T05:22:12.934Z,5.60
2023-01-07T05:24:41.701Z,4.97
2023-01-07T05:27:09.114Z,4.43
2023-01-07T05:29:38.073Z,7.78
2023-01-07T05:32:05.431Z,9.00
2023-01-07T05:34:33.049Z,4.53
2023-01-07T05:37:00.417Z,5.65
2023-01-07T05:39:27.752Z,10.38
2023-01-07T05:41:55.167Z,6.57
2023-01-07T05:44:25.056Z,4.93
2023-01-07T05:46:52.369Z,4.75
2023-01-07T05:49:19.609Z,5.60
2023-01-07T05:51:46.878Z,4.70
2023-01-07T05:54:14.164Z,5.60
2023-01-07T05:56:41.513Z,4.13
2023-01-07T05:59:09.338Z,7.05
2023-01-07T06:01:36.701Z,7.22
2023-01-07T06:04:04.022Z,6.88
2023-01-07T06:06:31.240Z,4.85
2023-01-07T06:08:58.478Z,6.93
2023-01-07T06:11:25.818Z,7.40
2023-01-07T06:13:53.215Z,5.38
2023-01-07T06:16:20.472Z,5.82
2023-01-07T06:18:47.826Z,5.72
2023-01-07T06:21:16.235Z,6.47
2023-01-07T06:23:43.607Z,7.32
2023-01-07T06:26:10.913Z,9.30
2023-01-07T06:28:38.187Z,6.85
2023-01-07T06:31:05.629Z,4.43
2023-01-07T06:33:33.628Z,6.55
2023-01-07T06:36:01.039Z,7.20
2023-01-07T06:38:28.272Z,7.28
2023-01-07T06:40:55.539Z,5.88
2023-01-07T06:43:22.894Z,6.50
2023-01-07T06:45:50.406Z,6.85
2023-01-07T06:48:17.677Z,6.50
2023-01-07T06:50:45.301Z,5.43
2023-01-07T06:53:13.273Z,5.55
2023-01-07T06:55:40.595Z,6.88
2023-01-07T06:58:07.797Z,8.43
2023-01-07T07:00:35.146Z,5.72
2023-01-07T07:03:02.509Z,5.97
2023-01-07T07:05:29.756Z,6.18
2023-01-07T07:07:57.048Z,7.85
2023-01-07T07:10:24.857Z,7.35
2023-01-07T07:12:52.420Z,5.82
2023-01-07T07:15:19.760Z,6.57
2023-01-07T07:17:47.175Z,6.55
2023-01-07T07:20:14.476Z,7.68
2023-01-07T07:22:48.427Z,7.95
2023-01-07T07:25:15.809Z,6.38
2023-01-07T07:27:46.807Z,6.07
2023-01-07T07:30:17.300Z,6.43
2023-01-07T07:32:44.641Z,6.57
2023-01-07T07:35:12.325Z,5.70
2023-01-07T07:37:39.746Z,6.63
2023-01-07T07:40:09.087Z,6.53
2023-01-07T07:43:09.474Z,13.07
2023-01-07T07:45:25.535Z,9.88
2023-01-07T07:47:52.789Z,7.68
2023-01-07T07:50:20.186Z,6.20
2023-01-07T07:52:47.459Z,6.53
2023-01-07T07:55:20.149Z,6.35
2023-01-07T07:57:54.835Z,6.63
2023-01-07T08:00:23.173Z,6.20
2023-01-07T08:02:50.919Z,6.35
2023-01-07T08:05:18.406Z,5.78
2023-01-07T08:07:45.746Z,7.65
2023-01-07T08:10:13.027Z,6.35
2023-01-07T08:12:40.279Z,7.07
2023-01-07T08:15:08.394Z,6.00
2023-01-07T08:17:36.448Z,6.50
2023-01-07T08:20:05.071Z,8.07
2023-01-07T08:22:33.362Z,5.97
2023-01-07T08:25:00.965Z,5.88
2023-01-07T08:27:28.579Z,5.70
2023-01-07T08:29:56.319Z,5.72
2023-01-07T08:32:24.101Z,6.15
2023-01-07T08:34:51.491Z,5.57
2023-01-07T08:37:18.863Z,11.85
2023-01-07T08:39:46.251Z,9.30
2023-01-07T08:42:13.524Z,5.78
2023-01-07T08:44:40.911Z,5.75
2023-01-07T08:47:08.126Z,5.47
2023-01-07T08:49:35.421Z,9.27
2023-01-07T08:52:02.864Z,6.82
2023-01-07T08:54:30.321Z,4.75
2023-01-07T08:56:58.190Z,7.95
2023-01-07T08:59:25.512Z,6.88
2023-01-07T09:01:52.885Z,8.18
2023-01-07T09:04:20.274Z,5.55
2023-01-07T09:06:47.708Z,5.38
2023-01-07T09:09:16.584Z,6.93
2023-01-07T09:11:43.911Z,5.90
2023-01-07T09:14:11.403Z,6.70
2023-01-07T09:16:38.683Z,7.78
2023-01-07T09:19:06.146Z,6.38
2023-01-07T09:21:33.567Z,10.00
2023-01-07T09:24:00.842Z,8.52
2023-01-07T09:26:28.378Z,9.35
2023-01-07T09:28:55.659Z,8.75
2023-01-07T09:31:24.120Z,6.57
2023-01-07T09:33:51.815Z,7.88
2023-01-07T09:36:19.012Z,7.45
2023-01-07T09:38:46.227Z,5.85
2023-01-07T09:41:28.371Z,5.85
2023-01-07T09:44:01.978Z,7.00
2023-01-07T09:46:32.533Z,6.88
2023-01-07T09:49:02.308Z,5.25
2023-01-07T09:51:35.580Z,7.22
2023-01-07T09:54:04.570Z,8.27
2023-01-07T09:56:36.829Z,5.38
2023-01-07T09:59:05.482Z,8.95
2023-01-07T10:01:55.840Z,14.88
2023-01-07T10:04:37.857Z,8.10
2023-01-07T10:07:17.551Z,6.53
2023-01-07T10:09:57.369Z,7.53
2023-01-07T10:12:32.529Z,8.00
2023-01-07T10:15:13.009Z,5.10
2023-01-07T10:17:56.648Z,5.00
2023-01-07T10:20:51.546Z,5.40
2023-01-07T10:23:35.852Z,6.20
2023-01-07T10:26:03.378Z,5.28
2023-01-07T10:29:00.127Z,8.07
2023-01-07T10:31:27.815Z,6.25
2023-01-07T10:33:57.296Z,5.40
2023-01-07T10:36:38.510Z,6.22
2023-01-07T10:39:18.064Z,5.65
2023-01-07T10:42:09.904Z,4.60
2023-01-07T10:44:37.041Z,8.48
2023-01-07T10:47:16.381Z,6.18
2023-01-07T10:49:55.629Z,6.60
2023-01-07T10:52:41.561Z,6.23
2023-01-07T10:55:33.839Z,7.95
2023-01-07T10:58:02.700Z,9.73
2023-01-07T11:00:29.962Z,5.90
2023-01-07T11:02:59.094Z,6.22
2023-01-07T11:05:29.183Z,8.35
2023-01-07T11:10:30.350Z,6.47
2023-01-07T11:13:01.906Z,5.65
2023-01-07T11:15:32.382Z,9.60
2023-01-07T11:18:02.238Z,8.07
2023-01-07T11:20:44.822Z,15.35
2023-01-07T11:23:27.418Z,7.80
2023-01-07T11:25:55.349Z,7.03
2023-01-07T11:28:26.894Z,5.13
2023-01-07T11:30:59.343Z,6.10
2023-01-07T11:34:02.958Z,5.80
2023-01-07T11:36:43.547Z,6.55
2023-01-07T11:39:18.271Z,5.57
2023-01-07T11:41:58.311Z,8.48
2023-01-07T11:44:26.358Z,6.88
2023-01-07T11:46:54.173Z,6.53
2023-01-07T11:49:25.677Z,8.00
2023-01-07T11:51:53.369Z,18.15
2023-01-07T11:54:25.763Z,12.60
2023-01-07T11:56:55.118Z,7.82
2023-01-07T11:59:27.954Z,12.73
2023-01-07T12:01:59.324Z,5.80
2023-01-07T12:07:07.385Z,8.15
2023-01-07T12:09:37.739Z,6.95
2023-01-07T12:12:34.915Z,5.60
2023-01-07T12:15:17.800Z,6.68
2023-01-07T12:17:50.839Z,9.82
2023-01-07T12:20:39.463Z,8.50
2023-01-07T12:23:19.192Z,7.45
2023-01-07T12:25:49.688Z,8.55
2023-01-07T12:28:19.215Z,8.63
2023-01-07T12:30:54.499Z,8.88
2023-01-07T12:33:38.616Z,13.43
2023-01-07T12:36:13.613Z,12.05
2023-01-07T12:38:50.998Z,10.85
2023-01-07T12:41:25.801Z,12.02
2023-01-07T12:44:02.627Z,15.65
2023-01-07T12:46:39.176Z,11.77
2023-01-07T12:49:16.973Z,9.32
2023-01-07T12:51:58.919Z,7.20
2023-01-07T12:54:52.483Z,10.90
2023-01-07T12:57:23.779Z,12.27
2023-01-07T13:00:18.748Z,8.70
2023-01-07T13:03:23.378Z,6.85
2023-01-07T13:06:15.496Z,10.07
2023-01-07T13:08:51.920Z,13.50
2023-01-07T13:11:44.100Z,7.47
2023-01-07T13:14:22.336Z,12.00
2023-01-07T13:16:49.751Z,7.43
2023-01-07T13:19:17.111Z,6.63
2023-01-07T13:21:46.272Z,8.38
2023-01-07T13:24:56.162Z,8.00
2023-01-07T13:27:23.106Z,9.85
2023-01-07T13:29:59.381Z,8.50
2023-01-07T13:32:38.738Z,9.25
2023-01-07T13:35:27.777Z,7.90
2023-01-07T13:38:26.730Z,10.13
2023-01-07T13:41:12.663Z,8.15
2023-01-07T13:43:58.650Z,7.38
2023-01-07T13:46:33.449Z,7.78
2023-01-07T13:49:00.956Z,10.63
2023-01-07T13:51:33.682Z,8.65
2023-01-07T13:54:01.179Z,9.38
2023-01-07T13:56:29.441Z,12.10
2023-01-07T13:58:58.162Z,12.38
2023-01-07T14:01:30.816Z,6.63
2023-01-07T14:04:04.157Z,10.80
2023-01-07T14:06:43.046Z,9.70
2023-01-07T14:09:25.850Z,9.20
2023-01-07T14:12:11.227Z,7.28
2023-01-07T14:15:19.563Z,13.63
2023-01-07T14:18:06.579Z,14.32
2023-01-07T14:20:47.825Z,15.00
2023-01-07T14:23:37.120Z,9.77
2023-01-07T14:26:29.192Z,9.35
2023-01-07T14:29:15.445Z,9.75
2023-01-07T14:31:43.004Z,10.43
2023-01-07T14:34:36.585Z,8.68
2023-01-07T14:37:09.052Z,8.90
2023-01-07T14:39:44.397Z,8.93
2023-01-07T14:42:21.167Z,10.07
2023-01-07T14:44:51.394Z,8.18
2023-01-07T14:50:29.979Z,10.82
2023-01-07T14:53:16.303Z,9.88
2023-01-07T14:55:52.535Z,11.98
2023-01-07T14:59:04.537Z,8.20
2023-01-07T15:01:43.981Z,11.88
2023-01-07T15:04:31.921Z,9.18
2023-01-07T15:07:01.995Z,13.27
2023-01-07T15:10:00.436Z,8.85
2023-01-07T15:12:49.133Z,7.40
2023-01-07T15:15:40.566Z,7.82
2023-01-07T15:18:09.292Z,10.77
2023-01-07T15:20:49.223Z,11.93
2023-01-07T15:23:56.163Z,12.55
2023-01-07T15:26:50.224Z,12.85
2023-01-07T15:29:35.950Z,7.93
2023-01-07T15:32:15.138Z,9.55
2023-01-07T15:34:43.583Z,9.00
2023-01-07T15:37:13.266Z,21.50
2023-01-07T15:39:46.798Z,8.73
2023-01-07T15:42:16.303Z,7.35
2023-01-07T15:44:43.814Z,7.88
2023-01-07T15:47:42.342Z,10.45
2023-01-07T15:50:24.360Z,8.88
2023-01-07T15:52:57.442Z,13.57
2023-01-07T15:55:26.240Z,9.30
2023-01-07T15:58:03.833Z,10.95
2023-01-07T16:00:31.833Z,6.68
2023-01-07T16:02:59.782Z,7.05
2023-01-07T16:05:27.430Z,6.28
2023-01-07T16:08:01.742Z,9.73
2023-01-07T16:10:35.754Z,9.73
2023-01-07T16:13:18.378Z,8.10
2023-01-07T16:15:45.960Z,6.85
2023-01-07T16:18:14.802Z,7.00
2023-01-07T16:20:57.732Z,8.23
2023-01-07T16:23:30.626Z,7.05
2023-01-07T16:26:07.965Z,8.15
2023-01-07T16:28:46.158Z,8.18
2023-01-07T16:31:16.611Z,7.50
2023-01-07T16:33:44.577Z,16.63
2023-01-07T16:36:15.254Z,16.63
2023-01-07T16:38:44.115Z,7.82
2023-01-07T16:41:20.305Z,13.27
2023-01-07T16:43:47.953Z,10.80
2023-01-07T16:46:33.147Z,9.95
2023-01-07T16:49:20.793Z,10.40
2023-01-07T16:51:53.105Z,10.20
2023-01-07T16:54:26.456Z,9.93
2023-01-07T16:56:56.121Z,8.88
2023-01-07T16:59:27.752Z,8.90
2023-01-07T17:01:55.914Z,8.25
2023-01-07T17:04:30.056Z,6.35
2023-01-07T17:06:59.240Z,8.35
2023-01-07T17:09:31.657Z,7.78
2023-01-07T17:11:59.076Z,8.77
2023-01-07T17:14:48.013Z,9.73
2023-01-07T17:17:19.588Z,9.57
2023-01-07T17:19:54.332Z,8.25
2023-01-07T17:22:32.882Z,8.38
2023-01-07T17:25:07.021Z,25.67
2023-01-07T17:27:35.078Z,10.23
2023-01-07T17:30:04.462Z,7.20
2023-01-07T17:32:34.271Z,8.47
2023-01-07T17:35:03.161Z,18.00
2023-01-07T17:37:30.492Z,10.63
2023-01-07T17:40:00.687Z,13.07
2023-01-07T17:42:48.325Z,7.75
2023-01-07T17:45:18.368Z,8.00
2023-01-07T17:47:45.683Z,7.40
2023-01-07T17:50:14.899Z,6.50
2023-01-07T17:52:44.722Z,11.27
2023-01-07T17:55:17.425Z,8.23
2023-01-07T17:57:45.079Z,9.52
2023-01-07T18:00:22.574Z,8.73
2023-01-07T18:02:50.938Z,7.43
2023-01-07T18:05:23.344Z,6.95
2023-01-07T18:07:51.851Z,9.77
2023-01-07T18:10:26.195Z,9.63
2023-01-07T18:12:53.588Z,9.50
2023-01-07T18:15:25.754Z,7.75
2023-01-07T18:17:53.374Z,8.93
2023-01-07T18:20:21.900Z,8.57
2023-01-07T18:22:50.158Z,10.90
2023-01-07T18:25:21.127Z,7.72
2023-01-07T18:27:52.866Z,6.93
2023-01-07T18:30:21.983Z,8.35
2023-01-07T18:32:52.907Z,10.35
2023-01-07T18:35:20.437Z,9.40
2023-01-07T18:37:48.759Z,8.52
2023-01-07T18:40:16.057Z,10.65
2023-01-07T18:42:44.497Z,11.45
2023-01-07T18:45:12.621Z,9.82
2023-01-07T18:47:40.134Z,7.05
2023-01-07T18:50:08.431Z,12.02
2023-01-07T18:52:38.695Z,8.05
2023-01-07T18:55:07.381Z,11.45
2023-01-07T18:57:34.760Z,7.72
2023-01-07T19:00:02.542Z,10.65
2023-01-07T19:02:30.457Z,7.68
2023-01-07T19:04:58.857Z,10.10
2023-01-07T19:07:26.148Z,10.45
2023-01-07T19:09:53.737Z,8.30
2023-01-07T19:12:21.322Z,10.98
2023-01-07T19:14:48.743Z,11.65
2023-01-07T19:17:15.963Z,14.65
2023-01-07T19:19:48.366Z,9.05
2023-01-07T19:22:16.652Z,9.35
2023-01-07T19:24:44.656Z,11.10
2023-01-07T19:27:12.170Z,13.23
2023-01-07T19:29:39.587Z,11.75
2023-01-07T19:32:07.045Z,9.20
2023-01-07T19:34:34.391Z,10.52
2023-01-07T19:37:01.728Z,10.43
2023-01-07T19:39:29.044Z,8.20
2023-01-07T19:41:56.395Z,9.95
2023-01-07T19:44:23.712Z,9.90
2023-01-07T19:46:51.030Z,9.52
2023-01-07T19:49:18.504Z,11.43
2023-01-07T19:51:45.876Z,8.45
2023-01-07T19:54:16.019Z,10.90
2023-01-07T19:59:13.525Z,9.60
2023-01-07T20:01:42.065Z,13.10
2023-01-07T20:04:09.676Z,13.38
2023-01-07T20:06:38.906Z,8.15
2023-01-07T20:09:11.109Z,11.82
2023-01-07T20:11:39.419Z,10.85
2023-01-07T20:14:11.739Z,9.20
2023-01-07T20:16:41.533Z,10.13
2023-01-07T20:19:12.577Z,11.35
2023-01-07T20:21:40.137Z,12.93
2023-01-07T20:24:07.851Z,8.70
2023-01-07T20:26:36.522Z,12.38
2023-01-07T20:29:03.984Z,16.20
2023-01-07T20:31:31.560Z,13.48
2023-01-07T20:33:59.929Z,13.00
2023-01-07T20:36:29.447Z,11.32
2023-01-07T20:38:56.896Z,14.85
2023-01-07T20:41:28.058Z,11.80
2023-01-07T20:44:00.192Z,12.85
2023-01-07T20:46:29.230Z,11.98
2023-01-07T20:48:57.407Z,8.80
2023-01-07T20:51:24.964Z,12.80
2023-01-07T20:53:52.380Z,16.50
2023-01-07T20:56:21.785Z,13.18
2023-01-07T20:58:49.465Z,12.17
2023-01-07T21:01:20.043Z,12.43
2023-01-07T21:03:48.118Z,13.77
2023-01-07T21:06:17.615Z,9.70
2023-01-07T21:08:45.825Z,9.02
2023-01-07T21:11:15.790Z,12.50
2023-01-07T21:13:43.149Z,10.02
2023-01-07T21:16:10.735Z,8.27
2023-01-07T21:18:38.601Z,9.45
2023-01-07T21:21:17.110Z,10.48
2023-01-07T21:23:46.976Z,11.93
2023-01-07T21:26:14.924Z,10.10
2023-01-07T21:28:44.391Z,11.95
2023-01-07T21:31:14.058Z,9.45
2023-01-07T21:33:42.337Z,9.27
2023-01-07T21:36:19.559Z,10.07
2023-01-07T21:38:47.572Z,8.15
2023-01-07T21:41:16.275Z,9.73
2023-01-07T21:43:44.531Z,10.00
2023-01-07T21:46:12.912Z,10.70
2023-01-07T21:48:42.285Z,9.90
2023-01-07T21:51:27.765Z,14.52
2023-01-07T21:53:57.316Z,11.55
2023-01-07T21:56:31.278Z,12.50
2023-01-07T21:58:59.356Z,9.93
2023-01-07T22:01:28.808Z,10.05
2023-01-07T22:03:58.647Z,10.32
2023-01-07T22:06:30.497Z,7.82
2023-01-07T22:08:59.744Z,9.30
2023-01-07T22:11:28.301Z,10.27
2023-01-07T22:13:57.349Z,10.65
2023-01-07T22:16:26.822Z,10.98
2023-01-07T22:18:54.388Z,9.77
2023-01-07T22:21:21.802Z,9.88
2023-01-07T22:23:49.263Z,9.90
2023-01-07T22:26:17.881Z,10.63
2023-01-07T22:28:49.482Z,10.88
2023-01-07T22:31:23.197Z,8.43
2023-01-07T22:33:50.729Z,10.50
2023-01-07T22:36:44.162Z,8.75
2023-01-07T22:39:16.073Z,9.02
2023-01-07T22:41:44.227Z,8.88
2023-01-07T22:44:19.741Z,8.45
2023-01-07T22:46:48.406Z,11.35
2023-01-07T22:49:15.810Z,7.05
2023-01-07T22:51:47.050Z,10.20
2023-01-07T22:54:15.301Z,9.18
2023-01-07T22:56:42.886Z,12.77
2023-01-07T22:59:10.261Z,11.10
2023-01-07T23:01:39.123Z,11.73
2023-01-07T23:04:06.792Z,9.02
2023-01-07T23:06:34.489Z,11.02
2023-01-07T23:09:01.731Z,9.93
2023-01-07T23:11:47.509Z,9.77
2023-01-07T23:14:15.941Z,10.80
2023-01-07T23:16:43.337Z,10.48
2023-01-07T23:19:10.807Z,9.27
2023-01-07T23:21:42.388Z,9.10
2023-01-07T23:24:11.167Z,7.25
2023-01-07T23:26:39.140Z,9.65
2023-01-07T23:29:06.695Z,12.32
2023-01-07T23:31:34.842Z,11.35
2023-01-07T23:34:03.764Z,12.80
2023-01-07T23:36:31.099Z,15.13
2023-01-07T23:38:58.364Z,11.98
2023-01-07T23:41:25.787Z,10.10
2023-01-07T23:43:53.223Z,10.85
2023-01-07T23:46:20.485Z,10.45
2023-01-07T23:48:47.840Z,11.35
2023-01-07T23:51:19.925Z,9.68
2023-01-07T23:53:47.316Z,11.48
2023-01-07T23:56:17.829Z,14.60
2023-01-07T23:58:45.060Z,11.63
